createdAt,value
2022-08-17T00:01:51.458Z,21.66
2022-08-17T00:04:20.739Z,21.66
2022-08-17T00:06:49.606Z,21.68
2022-08-17T00:09:18.648Z,21.67
2022-08-17T00:12:41.040Z,21.68
2022-08-17T00:14:36.724Z,21.64
2022-08-17T00:17:06.447Z,21.61
2022-08-17T00:19:34.103Z,21.59
2022-08-17T00:22:35.265Z,21.57
2022-08-17T00:24:50.549Z,21.54
2022-08-17T00:27:19.056Z,21.49
2022-08-17T00:29:46.246Z,21.44
2022-08-17T00:33:23.146Z,21.44
2022-08-17T00:35:06.810Z,21.39
2022-08-17T00:37:33.972Z,21.37
2022-08-17T00:40:01.212Z,21.32
2022-08-17T00:42:31.121Z,21.30
2022-08-17T00:44:59.139Z,21.28
2022-08-17T00:47:26.496Z,21.25
2022-08-17T00:49:54.082Z,21.23
2022-08-17T00:52:32.408Z,21.19
2022-08-17T00:55:01.196Z,21.15
2022-08-17T00:57:35.124Z,21.10
2022-08-17T01:00:33.651Z,21.09
2022-08-17T01:03:11.915Z,21.05
2022-08-17T01:05:42.252Z,21.00
2022-08-17T01:08:15.252Z,20.99
2022-08-17T01:10:57.438Z,20.96
2022-08-17T01:13:41.160Z,20.94
2022-08-17T01:16:26.620Z,20.97
2022-08-17T01:18:59.347Z,20.95
2022-08-17T01:21:30.603Z,20.92
2022-08-17T01:24:00.035Z,20.88
2022-08-17T01:26:29.587Z,20.88
2022-08-17T01:28:56.916Z,20.88
2022-08-17T01:31:30.303Z,20.87
2022-08-17T01:34:02.184Z,20.88
2022-08-17T01:36:29.496Z,20.88
2022-08-17T01:38:56.718Z,20.87
2022-08-17T01:41:24.898Z,20.85
2022-08-17T01:44:01.345Z,20.86
2022-08-17T01:46:35.149Z,20.87
2022-08-17T01:49:08.652Z,20.87
2022-08-17T01:51:36.240Z,20.83
2022-08-17T01:54:13.531Z,20.82
2022-08-17T01:56:48.367Z,20.81
2022-08-17T01:59:18.393Z,20.79
2022-08-17T02:01:46.873Z,20.77
2022-08-17T02:04:16.056Z,20.74
2022-08-17T02:06:53.537Z,20.72
2022-08-17T02:09:25.666Z,20.73
2022-08-17T02:11:59.790Z,20.71
2022-08-17T02:14:46.948Z,20.68
2022-08-17T02:17:14.088Z,20.66
2022-08-17T02:19:41.351Z,20.67
2022-08-17T02:22:09.145Z,20.69
2022-08-17T02:25:00.159Z,20.65
2022-08-17T02:27:26.275Z,20.61
2022-08-17T02:29:53.535Z,20.62
2022-08-17T02:32:27.922Z,20.64
2022-08-17T02:34:57.932Z,20.63
2022-08-17T02:37:27.581Z,20.63
2022-08-17T02:39:57.151Z,20.62
2022-08-17T02:42:34.032Z,20.61
2022-08-17T02:45:04.278Z,20.55
2022-08-17T02:47:31.396Z,20.54
2022-08-17T02:49:58.589Z,20.53
2022-08-17T02:52:43.139Z,20.52
2022-08-17T02:55:29.917Z,20.52
2022-08-17T02:57:57.403Z,20.49
2022-08-17T03:00:36.366Z,20.47
2022-08-17T03:03:06.111Z,20.45
2022-08-17T03:05:36.205Z,20.45
2022-08-17T03:08:07.017Z,20.44
2022-08-17T03:10:39.056Z,20.44
2022-08-17T03:13:06.191Z,20.47
2022-08-17T03:15:35.072Z,20.46
2022-08-17T03:18:03.762Z,20.48
2022-08-17T03:20:33.057Z,20.50
2022-08-17T03:23:02.808Z,20.51
2022-08-17T03:25:35.415Z,20.54
2022-08-17T03:28:04.757Z,20.54
2022-08-17T03:30:32.952Z,20.55
2022-08-17T03:33:04.830Z,20.58
2022-08-17T03:35:36.352Z,20.59
2022-08-17T03:38:04.585Z,20.62
2022-08-17T03:40:55.559Z,20.62
2022-08-17T03:43:23.218Z,20.61
2022-08-17T03:46:10.837Z,20.67
2022-08-17T03:49:13.516Z,20.68
2022-08-17T03:51:59.595Z,20.69
2022-08-17T03:54:45.694Z,20.68
2022-08-17T03:57:13.877Z,20.68
2022-08-17T03:59:41.344Z,20.67
2022-08-17T04:02:13.480Z,20.68
2022-08-17T04:04:40.755Z,20.67
2022-08-17T04:07:08.433Z,20.64
2022-08-17T04:09:36.620Z,20.62
2022-08-17T04:12:05.329Z,20.59
2022-08-17T04:14:51.396Z,20.57
2022-08-17T04:17:27.946Z,20.55
2022-08-17T04:19:55.866Z,20.50
2022-08-17T04:22:32.622Z,20.50
2022-08-17T04:25:09.960Z,20.46
2022-08-17T04:27:37.142Z,20.44
2022-08-17T04:30:07.264Z,20.43
2022-08-17T04:33:10.467Z,20.43
2022-08-17T04:35:41.332Z,20.41
2022-08-17T04:38:18.905Z,20.40
2022-08-17T04:41:05.085Z,20.32
2022-08-17T04:43:35.077Z,20.26
2022-08-17T04:46:08.805Z,20.25
2022-08-17T04:48:53.141Z,20.23
2022-08-17T04:51:23.732Z,20.19
2022-08-17T04:54:04.293Z,20.22
2022-08-17T04:56:32.739Z,20.24
2022-08-17T04:59:05.219Z,20.30
2022-08-17T05:01:36.179Z,20.35
2022-08-17T05:04:32.841Z,20.39
2022-08-17T05:06:57.618Z,20.44
2022-08-17T05:09:24.670Z,20.49
2022-08-17T05:11:51.818Z,20.51
2022-08-17T05:14:18.981Z,20.56
2022-08-17T05:16:49.225Z,20.60
2022-08-17T05:19:16.335Z,20.67
2022-08-17T05:21:43.506Z,20.70
2022-08-17T05:24:36.074Z,20.71
2022-08-17T05:27:02.604Z,20.77
2022-08-17T05:29:35.466Z,20.78
2022-08-17T05:32:38.322Z,20.77
2022-08-17T05:35:00.005Z,20.70
2022-08-17T05:37:27.091Z,20.68
2022-08-17T05:39:54.516Z,20.66
2022-08-17T05:42:22.475Z,20.58
2022-08-17T05:44:49.668Z,20.42
2022-08-17T05:47:18.343Z,20.30
2022-08-17T05:49:45.532Z,20.23
2022-08-17T05:52:50.098Z,20.10
2022-08-17T05:55:39.967Z,19.99
2022-08-17T05:58:52.748Z,19.93
2022-08-17T06:01:42.954Z,19.89
2022-08-17T06:04:34.721Z,19.76
2022-08-17T06:07:30.349Z,19.70
2022-08-17T06:10:16.883Z,19.63
2022-08-17T06:13:17.837Z,19.57
2022-08-17T06:16:28.221Z,19.54
2022-08-17T06:19:03.183Z,19.48
2022-08-17T06:21:38.028Z,19.48
2022-08-17T06:24:20.473Z,19.46
2022-08-17T06:26:48.821Z,19.49
2022-08-17T06:29:41.147Z,19.54
2022-08-17T06:32:12.862Z,19.55
2022-08-17T06:34:45.031Z,19.55
2022-08-17T06:37:48.759Z,19.58
2022-08-17T06:40:38.784Z,19.64
2022-08-17T06:43:32.661Z,19.70
2022-08-17T06:46:12.056Z,19.78
2022-08-17T06:49:07.382Z,19.79
2022-08-17T06:51:43.770Z,19.75
2022-08-17T06:54:33.976Z,19.78
2022-08-17T06:57:19.642Z,19.78
2022-08-17T06:59:58.648Z,19.75
2022-08-17T07:03:02.278Z,19.77
2022-08-17T07:05:42.888Z,19.79
2022-08-17T07:08:35.195Z,19.82
2022-08-17T07:11:13.086Z,19.81
2022-08-17T07:14:17.532Z,19.80
2022-08-17T07:16:51.696Z,19.83
2022-08-17T07:19:22.563Z,19.82
2022-08-17T07:22:25.546Z,19.90
2022-08-17T07:24:59.628Z,19.94
2022-08-17T07:27:33.788Z,19.96
2022-08-17T07:30:19.945Z,20.01
2022-08-17T07:33:13.654Z,20.08
2022-08-17T07:35:44.952Z,20.21
2022-08-17T07:38:28.441Z,20.29
2022-08-17T07:41:02.318Z,20.37
2022-08-17T07:43:41.195Z,20.49
2022-08-17T07:46:33.889Z,20.64
2022-08-17T07:49:00.875Z,20.80
2022-08-17T07:51:38.047Z,20.93
2022-08-17T07:54:23.280Z,21.05
2022-08-17T07:57:13.633Z,21.19
2022-08-17T08:00:03.448Z,21.29
2022-08-17T08:02:45.423Z,21.38
2022-08-17T08:05:48.811Z,21.47
2022-08-17T08:08:42.229Z,21.48
2022-08-17T08:11:15.467Z,21.50
2022-08-17T08:13:45.541Z,21.51
2022-08-17T08:16:29.578Z,21.51
2022-08-17T08:19:01.836Z,21.54
2022-08-17T08:21:59.999Z,21.53
2022-08-17T08:25:11.295Z,21.49
2022-08-17T08:28:16.722Z,21.49
2022-08-17T08:30:52.701Z,21.50
2022-08-17T08:33:40.206Z,21.56
2022-08-17T08:37:12.719Z,21.64
2022-08-17T08:39:53.706Z,21.76
2022-08-17T08:42:51.539Z,21.84
2022-08-17T08:45:32.855Z,22.02
2022-08-17T08:48:46.302Z,22.09
2022-08-17T08:51:50.939Z,22.28
2022-08-17T08:54:47.997Z,22.49
2022-08-17T08:57:34.573Z,22.61
2022-08-17T09:00:10.883Z,22.88
2022-08-17T09:03:06.166Z,23.07
2022-08-17T09:05:52.484Z,23.15
2022-08-17T09:09:09.256Z,23.21
2022-08-17T09:12:04.992Z,23.39
2022-08-17T09:14:47.523Z,23.47
2022-08-17T09:19:03.007Z,23.46
2022-08-17T09:21:48.233Z,23.50
2022-08-17T09:24:32.783Z,23.52
2022-08-17T09:27:11.339Z,23.51
2022-08-17T09:29:47.884Z,23.54
2022-08-17T09:32:31.378Z,23.60
2022-08-17T09:35:11.956Z,23.72
2022-08-17T09:38:16.622Z,23.84
2022-08-17T09:41:06.428Z,23.98
2022-08-17T09:43:46.869Z,24.17
2022-08-17T09:46:24.968Z,24.26
2022-08-17T09:49:16.025Z,24.40
2022-08-17T09:51:55.054Z,24.56
2022-08-17T09:54:44.849Z,24.62
2022-08-17T09:57:42.118Z,24.69
2022-08-17T10:00:28.028Z,24.73
2022-08-17T10:03:29.140Z,24.74
2022-08-17T10:06:37.838Z,24.63
2022-08-17T10:09:13.094Z,24.43
2022-08-17T10:12:17.083Z,24.23
2022-08-17T10:15:15.569Z,23.94
2022-08-17T10:18:10.680Z,23.69
2022-08-17T10:21:14.193Z,23.59
2022-08-17T10:24:03.553Z,23.53
2022-08-17T10:26:40.553Z,23.49
2022-08-17T10:29:44.165Z,23.49
2022-08-17T10:32:35.360Z,23.48
2022-08-17T10:35:28.635Z,23.49
2022-08-17T10:38:08.515Z,23.46
2022-08-17T10:40:45.445Z,23.45
2022-08-17T10:44:28.547Z,23.45
2022-08-17T10:46:57.671Z,23.45
2022-08-17T10:49:29.618Z,23.40
2022-08-17T10:52:01.597Z,23.29
2022-08-17T10:54:38.695Z,23.14
2022-08-17T10:57:31.696Z,23.09
2022-08-17T11:00:00.740Z,23.01
2022-08-17T11:02:54.484Z,22.89
2022-08-17T11:05:53.868Z,22.71
2022-08-17T11:09:13.734Z,22.58
2022-08-17T11:12:00.303Z,22.40
2022-08-17T11:14:55.812Z,22.31
2022-08-17T11:17:41.480Z,22.26
2022-08-17T11:20:41.283Z,22.30
2022-08-17T11:23:50.350Z,22.43
2022-08-17T11:26:28.048Z,22.54
2022-08-17T11:29:09.581Z,22.62
2022-08-17T11:31:46.567Z,22.69
2022-08-17T11:34:21.187Z,22.73
2022-08-17T11:37:07.443Z,22.68
2022-08-17T11:40:15.210Z,22.60
2022-08-17T11:42:59.648Z,22.51
2022-08-17T11:45:51.007Z,22.44
2022-08-17T11:49:18.937Z,22.44
2022-08-17T11:52:01.357Z,22.39
2022-08-17T11:54:33.225Z,22.27
2022-08-17T11:57:26.728Z,22.21
2022-08-17T12:00:46.652Z,22.12
2022-08-17T12:03:43.221Z,22.00
2022-08-17T12:06:34.363Z,21.96
2022-08-17T12:09:12.772Z,21.91
2022-08-17T12:12:12.158Z,21.86
2022-08-17T12:15:10.470Z,21.82
2022-08-17T12:17:42.373Z,21.82
2022-08-17T12:20:15.541Z,21.75
2022-08-17T12:23:01.008Z,21.68
2022-08-17T12:25:42.935Z,21.62
2022-08-17T12:28:27.779Z,21.58
2022-08-17T12:31:04.128Z,21.53
2022-08-17T12:33:31.803Z,21.52
2022-08-17T12:36:08.522Z,21.54
2022-08-17T12:38:38.269Z,21.56
2022-08-17T12:41:27.748Z,21.52
2022-08-17T12:44:31.515Z,21.48
2022-08-17T12:47:19.457Z,21.36
2022-08-17T12:49:55.052Z,21.27
2022-08-17T12:52:29.242Z,21.20
2022-08-17T12:55:11.038Z,21.21
2022-08-17T12:57:38.001Z,21.22
2022-08-17T13:00:40.859Z,21.26
2022-08-17T13:03:26.435Z,21.31
2022-08-17T13:06:06.120Z,21.47
2022-08-17T13:08:43.199Z,21.71
2022-08-17T13:11:22.562Z,21.97
2022-08-17T13:13:56.749Z,22.07
2022-08-17T13:16:31.631Z,22.09
2022-08-17T13:19:40.590Z,22.05
2022-08-17T13:22:12.797Z,21.97
2022-08-17T13:24:53.271Z,21.90
2022-08-17T13:27:23.677Z,21.83
2022-08-17T13:29:59.567Z,21.68
2022-08-17T13:32:45.659Z,21.54
2022-08-17T13:35:32.226Z,21.45
2022-08-17T13:38:10.712Z,21.40
2022-08-17T13:40:52.775Z,21.35
2022-08-17T13:43:48.401Z,21.39
2022-08-17T13:46:22.937Z,21.48
2022-08-17T13:49:09.648Z,21.55
2022-08-17T13:51:44.593Z,21.62
2022-08-17T13:54:33.451Z,21.72
2022-08-17T13:57:03.943Z,21.79
2022-08-17T14:00:12.180Z,21.88
2022-08-17T14:02:39.230Z,21.98
2022-08-17T14:05:06.790Z,22.02
2022-08-17T14:07:39.409Z,22.03
2022-08-17T14:10:18.068Z,22.00
2022-08-17T14:12:45.665Z,21.98
2022-08-17T14:15:20.503Z,22.03
2022-08-17T14:17:49.196Z,22.12
2022-08-17T14:20:21.247Z,22.26
2022-08-17T14:22:53.168Z,22.40
2022-08-17T14:25:26.355Z,22.54
2022-08-17T14:27:54.645Z,22.64
2022-08-17T14:30:25.969Z,22.73
2022-08-17T14:32:55.128Z,22.90
2022-08-17T14:35:23.861Z,23.03
2022-08-17T14:37:52.845Z,23.18
2022-08-17T14:40:22.632Z,23.35
2022-08-17T14:42:51.496Z,23.63
2022-08-17T14:45:29.607Z,23.81
2022-08-17T14:48:07.578Z,23.90
2022-08-17T14:50:41.057Z,24.21
2022-08-17T14:53:11.465Z,24.19
2022-08-17T14:55:42.303Z,24.14
2022-08-17T14:58:09.534Z,24.32
2022-08-17T15:00:39.409Z,24.24
2022-08-17T15:03:06.681Z,24.02
2022-08-17T15:05:37.993Z,23.89
2022-08-17T15:08:06.483Z,23.78
2022-08-17T15:10:35.683Z,23.63
2022-08-17T15:13:03.663Z,23.57
2022-08-17T15:15:31.268Z,23.53
2022-08-17T15:17:59.779Z,23.50
2022-08-17T15:20:29.908Z,23.50
2022-08-17T15:22:59.343Z,23.49
2022-08-17T15:25:30.374Z,23.44
2022-08-17T15:27:59.404Z,23.37
2022-08-17T15:30:28.231Z,23.28
2022-08-17T15:32:58.472Z,23.22
2022-08-17T15:35:30.375Z,23.17
2022-08-17T15:38:06.142Z,23.13
2022-08-17T15:40:38.620Z,23.09
2022-08-17T15:43:11.272Z,23.03
2022-08-17T15:45:40.409Z,22.97
2022-08-17T15:48:08.894Z,22.93
2022-08-17T15:50:36.143Z,22.95
2022-08-17T15:53:04.859Z,22.95
2022-08-17T15:55:33.439Z,22.93
2022-08-17T15:58:01.079Z,22.89
2022-08-17T16:00:29.516Z,22.79
2022-08-17T16:03:45.508Z,22.69
2022-08-17T16:05:47.803Z,22.62
2022-08-17T16:08:20.152Z,22.61
2022-08-17T16:10:50.359Z,22.60
2022-08-17T16:13:19.438Z,22.59
2022-08-17T16:15:57.068Z,22.59
2022-08-17T16:18:31.566Z,22.64
2022-08-17T16:21:25.735Z,22.80
2022-08-17T16:24:01.343Z,23.27
2022-08-17T16:26:32.025Z,23.70
2022-08-17T16:29:03.574Z,23.97
2022-08-17T16:31:31.204Z,24.26
2022-08-17T16:34:17.371Z,24.45
2022-08-17T16:36:55.044Z,24.75
2022-08-17T16:39:28.945Z,25.03
2022-08-17T16:41:57.464Z,25.20
2022-08-17T16:44:27.435Z,25.22
2022-08-17T16:46:54.748Z,25.14
2022-08-17T16:49:35.865Z,24.96
2022-08-17T16:52:10.069Z,24.98
2022-08-17T16:54:43.610Z,24.71
2022-08-17T16:57:13.402Z,24.56
2022-08-17T16:59:42.707Z,24.58
2022-08-17T17:02:17.071Z,24.58
2022-08-17T17:05:09.272Z,24.40
2022-08-17T17:08:03.464Z,24.12
2022-08-17T17:10:45.734Z,23.67
2022-08-17T17:13:23.872Z,23.33
2022-08-17T17:16:21.753Z,23.08
2022-08-17T17:19:14.887Z,22.90
2022-08-17T17:22:21.709Z,22.69
2022-08-17T17:25:03.643Z,22.51
2022-08-17T17:27:53.210Z,22.37
2022-08-17T17:30:37.200Z,22.21
2022-08-17T17:33:13.295Z,22.15
2022-08-17T17:35:54.301Z,22.08
2022-08-17T17:38:32.456Z,21.97
2022-08-17T17:41:12.004Z,21.83
2022-08-17T17:43:41.207Z,21.72
2022-08-17T17:46:28.656Z,21.66
2022-08-17T17:48:58.077Z,21.62
2022-08-17T17:52:15.584Z,21.60
2022-08-17T17:55:18.712Z,21.61
2022-08-17T17:57:57.595Z,21.59
2022-08-17T18:00:44.538Z,21.60
2022-08-17T18:03:26.512Z,21.55
2022-08-17T18:06:18.628Z,21.50
2022-08-17T18:10:02.985Z,21.40
2022-08-17T18:12:57.012Z,21.30
2022-08-17T18:15:37.043Z,21.21
2022-08-17T18:18:17.163Z,21.12
2022-08-17T18:20:54.052Z,21.04
2022-08-17T18:23:27.919Z,20.99
2022-08-17T18:25:58.560Z,20.96
2022-08-17T18:28:43.948Z,20.90
2022-08-17T18:31:22.058Z,20.90
2022-08-17T18:33:54.680Z,20.89
2022-08-17T18:36:36.451Z,20.82
2022-08-17T18:39:19.041Z,20.73
2022-08-17T18:41:50.836Z,20.69
2022-08-17T18:44:30.252Z,20.65
2022-08-17T18:47:24.662Z,20.60
2022-08-17T18:50:15.161Z,20.55
2022-08-17T18:52:42.439Z,20.48
2022-08-17T18:55:24.881Z,20.45
2022-08-17T18:58:21.069Z,20.37
2022-08-17T19:00:51.888Z,20.30
2022-08-17T19:03:26.469Z,20.25
2022-08-17T19:06:15.128Z,20.21
2022-08-17T19:08:42.321Z,20.15
2022-08-17T19:11:32.104Z,20.09
2022-08-17T19:14:03.808Z,20.02
2022-08-17T19:17:19.239Z,19.97
2022-08-17T19:19:56.467Z,19.90
2022-08-17T19:22:51.847Z,19.88
2022-08-17T19:25:29.304Z,19.80
2022-08-17T19:28:43.798Z,19.78
2022-08-17T19:31:26.943Z,19.77
2022-08-17T19:33:56.277Z,19.71
2022-08-17T19:36:50.735Z,19.66
2022-08-17T19:39:55.936Z,19.62
2022-08-17T19:42:55.860Z,19.55
2022-08-17T19:46:09.125Z,19.49
2022-08-17T19:48:51.240Z,19.44
2022-08-17T19:51:40.863Z,19.43
2022-08-17T19:54:35.122Z,19.39
2022-08-17T19:57:20.706Z,19.33
2022-08-17T20:00:17.217Z,19.24
2022-08-17T20:02:57.600Z,19.22
2022-08-17T20:06:08.534Z,19.20
2022-08-17T20:09:16.661Z,19.20
2022-08-17T20:11:56.211Z,19.16
2022-08-17T20:14:55.273Z,19.14
2022-08-17T20:17:34.866Z,19.12
2022-08-17T20:20:27.067Z,19.05
2022-08-17T20:23:39.923Z,19.02
2022-08-17T20:26:22.756Z,18.99
2022-08-17T20:29:16.667Z,19.00
2022-08-17T20:31:55.584Z,18.97
2022-08-17T20:34:25.704Z,18.92
2022-08-17T20:37:13.469Z,18.90
2022-08-17T20:40:09.300Z,18.88
2022-08-17T20:42:39.304Z,18.86
2022-08-17T20:45:21.285Z,18.87
2022-08-17T20:48:18.569Z,18.88
2022-08-17T20:50:58.984Z,18.88
2022-08-17T20:53:54.705Z,18.89
2022-08-17T20:56:43.643Z,18.88
2022-08-17T20:59:25.905Z,18.84
2022-08-17T21:02:06.655Z,18.80
2022-08-17T21:04:52.923Z,18.76
2022-08-17T21:07:51.171Z,18.74
2022-08-17T21:10:29.559Z,18.72
2022-08-17T21:13:23.942Z,18.69
2022-08-17T21:16:23.968Z,18.69
2022-08-17T21:19:22.148Z,18.64
2022-08-17T21:22:20.856Z,18.57
2022-08-17T21:25:14.160Z,18.55
2022-08-17T21:28:13.296Z,18.59
2022-08-17T21:30:44.577Z,18.62
2022-08-17T21:33:39.027Z,18.69
2022-08-17T21:36:11.909Z,18.76
2022-08-17T21:38:47.720Z,18.79
2022-08-17T21:41:46.328Z,18.84
2022-08-17T21:44:33.201Z,18.89
2022-08-17T21:47:23.625Z,18.92
2022-08-17T21:49:53.843Z,18.93
2022-08-17T21:52:26.695Z,18.97
2022-08-17T21:54:58.379Z,19.00
2022-08-17T21:57:28.885Z,19.02
2022-08-17T22:00:02.472Z,19.07
2022-08-17T22:02:37.209Z,19.06
2022-08-17T22:05:36.995Z,19.05
2022-08-17T22:08:19.599Z,19.07
2022-08-17T22:10:50.556Z,19.09
2022-08-17T22:13:17.775Z,19.12
2022-08-17T22:16:28.154Z,19.13
2022-08-17T22:18:59.068Z,19.12
2022-08-17T22:21:27.297Z,19.11
2022-08-17T22:24:21.544Z,19.05
2022-08-17T22:27:11.664Z,19.01
2022-08-17T22:30:00.192Z,19.00
2022-08-17T22:32:42.809Z,19.04
2022-08-17T22:35:33.305Z,19.09
2022-08-17T22:38:18.899Z,19.10
2022-08-17T22:40:51.094Z,19.08
2022-08-17T22:43:26.381Z,19.05
2022-08-17T22:45:59.286Z,18.99
2022-08-17T22:48:31.147Z,18.93
2022-08-17T22:51:13.660Z,18.87
2022-08-17T22:54:15.006Z,18.77
2022-08-17T22:57:32.742Z,18.68
2022-08-17T23:00:00.982Z,18.64
2022-08-17T23:02:35.778Z,18.64
2022-08-17T23:05:17.263Z,18.65
2022-08-17T23:07:46.851Z,18.66
2022-08-17T23:10:15.301Z,18.65
2022-08-17T23:12:42.629Z,18.67
2022-08-17T23:15:18.936Z,18.70
2022-08-17T23:17:46.512Z,18.73
2022-08-17T23:20:16.396Z,18.73
2022-08-17T23:22:52.355Z,18.72
2022-08-17T23:25:33.512Z,18.71
2022-08-17T23:28:03.730Z,18.66
2022-08-17T23:30:39.829Z,18.62
2022-08-17T23:33:18.980Z,18.58
2022-08-17T23:35:46.096Z,18.61
2022-08-17T23:38:13.885Z,18.65
2022-08-17T23:40:41.146Z,18.69
2022-08-17T23:43:24.180Z,18.73
2022-08-17T23:45:56.137Z,18.77
2022-08-17T23:48:35.044Z,18.83
2022-08-17T23:51:09.568Z,18.87
2022-08-17T23:53:46.135Z,18.91
2022-08-17T23:56:14.404Z,18.91
2022-08-17T23:58:44.713Z,18.93
